Time;durP1;ratioP1;P1;durP2;ratioP2;P2;SDS_P1;SDS_P2;PMS_P1;PMS_P2;Temp;Humidity;BMP_temperature;BMP_pressure;BME280_temperature;BME280_humidity;BME280_pressure;Samples;Min_cycle;Max_cycle;Signal;HPM_P1;HPM_P2
2022/03/30 00:01:56;;;;;;;27.57;19.10;;;;;;;10.08;54.87;99411.72;5009081;28;20050;-53
2022/03/30 00:04:24;;;;;;;31.48;18.50;;;;;;;10.08;55.07;99413.66;5013740;28;20050;-54
2022/03/30 00:06:51;;;;;;;27.42;18.65;;;;;;;10.09;55.27;99402.19;5009864;28;20053;-51
2022/03/30 00:09:18;;;;;;;27.40;18.70;;;;;;;10.08;55.13;99408.94;4997878;28;20043;-54
2022/03/30 00:11:46;;;;;;;27.08;19.98;;;;;;;10.07;54.63;99398.94;5013804;28;20054;-51
2022/03/30 00:14:13;;;;;;;26.52;19.60;;;;;;;10.09;54.39;99399.41;5013508;28;20054;-55
2022/03/30 00:16:42;;;;;;;28.65;18.98;;;;;;;10.09;54.71;99402.19;5013350;28;20050;-54
2022/03/30 00:19:09;;;;;;;28.95;19.75;;;;;;;10.09;54.95;99404.97;5013437;28;20417;-53
2022/03/30 00:21:37;;;;;;;26.52;18.00;;;;;;;10.12;54.88;99406.25;5013732;28;20430;-56
2022/03/30 00:24:07;;;;;;;29.02;19.98;;;;;;;10.11;54.49;99399.09;5010254;28;20053;-53
2022/03/30 00:26:35;;;;;;;26.33;18.67;;;;;;;10.12;54.77;99395.97;5013549;28;20057;-51
2022/03/30 00:29:04;;;;;;;27.35;19.42;;;;;;;10.13;55.26;99392.03;5013300;28;20062;-51
2022/03/30 00:31:32;;;;;;;25.60;19.08;;;;;;;10.16;54.62;99385.81;5012201;28;20065;-51
2022/03/30 00:34:01;;;;;;;26.63;19.48;;;;;;;10.16;54.54;99394.16;5013530;28;20057;-52
2022/03/30 00:36:28;;;;;;;26.30;19.40;;;;;;;10.17;54.22;99394.94;5012691;28;20057;-52
2022/03/30 00:38:55;;;;;;;27.00;18.48;;;;;;;10.15;54.56;99395.28;5013790;28;20060;-51
2022/03/30 00:41:22;;;;;;;25.85;19.33;;;;;;;10.14;54.72;99388.09;5013451;28;20058;-55
2022/03/30 00:43:50;;;;;;;28.35;20.13;;;;;;;10.14;54.60;99388.09;5002333;28;20467;-51
2022/03/30 00:46:18;;;;;;;29.30;19.35;;;;;;;10.16;54.50;99382.19;4995946;28;20062;-53
2022/03/30 00:48:45;;;;;;;27.20;19.60;;;;;;;10.19;54.20;99383.50;5000347;28;20069;-54
2022/03/30 00:51:14;;;;;;;28.80;19.17;;;;;;;10.15;54.28;99386.94;4993582;28;20046;-53
2022/03/30 00:53:41;;;;;;;24.07;17.83;;;;;;;10.17;54.39;99383.81;5011039;28;20058;-56
2022/03/30 00:56:09;;;;;;;24.35;18.67;;;;;;;10.16;54.09;99379.41;5005232;28;20077;-53
2022/03/30 00:58:37;;;;;;;25.15;18.23;;;;;;;10.16;54.53;99383.00;5005654;28;20518;-52
2022/03/30 01:01:06;;;;;;;25.63;18.42;;;;;;;10.13;54.83;99383.69;5012274;28;20053;-54
2022/03/30 01:03:36;;;;;;;27.45;18.17;;;;;;;10.14;54.32;99387.25;5012938;28;20050;-51
2022/03/30 01:06:03;;;;;;;28.75;18.70;;;;;;;10.16;54.30;99380.22;4997301;28;20379;-52
2022/03/30 01:08:32;;;;;;;25.63;18.42;;;;;;;10.17;54.07;99381.03;4994733;28;20050;-51
2022/03/30 01:11:01;;;;;;;26.35;18.90;;;;;;;10.17;54.07;99375.47;4993700;28;20046;-55
2022/03/30 01:13:28;;;;;;;25.70;17.33;;;;;;;10.14;54.02;99376.97;4994848;28;20053;-52
2022/03/30 01:15:56;;;;;;;26.52;18.92;;;;;;;10.11;54.93;99376.81;4993747;28;20058;-52
2022/03/30 01:18:23;;;;;;;31.08;19.05;;;;;;;10.10;55.15;99376.03;5012271;28;20054;-55
2022/03/30 01:20:52;;;;;;;25.25;17.25;;;;;;;10.13;54.31;99369.75;5006262;28;20065;-54
2022/03/30 01:23:20;;;;;;;30.23;18.35;;;;;;;10.12;54.86;99365.38;5003540;28;20061;-52
2022/03/30 01:25:47;;;;;;;33.22;21.00;;;;;;;10.14;54.10;99370.56;5012748;28;20058;-55
2022/03/30 01:28:14;;;;;;;29.15;18.63;;;;;;;10.12;54.03;99372.88;5013121;28;20054;-51
2022/03/30 01:33:27;;;;;;;26.25;17.95;;;;;;;10.06;54.37;99363.94;5007458;28;20053;-51
2022/03/30 01:35:56;;;;;;;28.33;19.33;;;;;;;10.06;54.81;99361.16;4992934;28;20058;-53
2022/03/30 01:38:23;;;;;;;29.95;18.63;;;;;;;10.05;54.92;99351.16;4993646;28;20475;-52
2022/03/30 01:40:50;;;;;;;25.60;17.48;;;;;;;10.04;54.56;99352.34;4994125;28;20061;-51
2022/03/30 01:43:17;;;;;;;30.08;18.42;;;;;;;10.05;54.66;99340.03;4994298;28;20486;-56
2022/03/30 01:45:45;;;;;;;28.58;18.58;;;;;;;10.00;54.69;99343.03;4998464;28;20057;-51
2022/03/30 01:48:12;;;;;;;27.20;18.30;;;;;;;10.00;54.99;99328.31;5000090;28;20058;-53
2022/03/30 01:50:39;;;;;;;24.98;18.13;;;;;;;9.96;55.11;99336.50;4992873;28;20407;-54
2022/03/30 01:53:08;;;;;;;26.23;17.80;;;;;;;9.94;55.12;99328.50;4993195;28;20057;-55
2022/03/30 01:55:36;;;;;;;30.63;17.97;;;;;;;9.91;54.75;99320.00;5008648;28;20050;-55
2022/03/30 01:58:05;;;;;;;23.52;16.58;;;;;;;9.88;54.83;99326.25;5012829;28;20053;-55
2022/03/30 02:00:32;;;;;;;27.85;18.70;;;;;;;9.81;54.92;99326.00;5010956;28;20411;-55
2022/03/30 02:03:00;;;;;;;29.02;17.63;;;;;;;9.78;55.14;99327.47;5011951;28;20061;-53
2022/03/30 02:05:28;;;;;;;26.13;17.30;;;;;;;9.75;55.44;99331.75;5007930;28;20046;-53
2022/03/30 02:07:56;;;;;;;32.63;19.60;;;;;;;9.71;55.35;99333.56;4995661;28;20081;-52
2022/03/30 02:10:28;;;;;;;26.25;18.23;;;;;;;9.67;55.53;99315.13;5005040;28;20045;-53
2022/03/30 02:12:55;;;;;;;26.88;18.02;;;;;;;9.58;56.26;99323.50;5016755;28;20057;-56
2022/03/30 02:15:23;;;;;;;26.17;17.52;;;;;;;9.52;55.92;99317.31;5015712;28;20057;-51
2022/03/30 02:17:50;;;;;;;28.70;17.35;;;;;;;9.45;56.55;99316.22;5016317;28;20060;-52
2022/03/30 02:20:18;;;;;;;29.23;17.55;;;;;;;9.37;57.15;99314.31;5015812;28;20050;-53
2022/03/30 02:22:45;;;;;;;29.48;16.88;;;;;;;9.30;56.42;99318.44;5016058;28;20403;-51
2022/03/30 02:25:13;;;;;;;27.90;18.13;;;;;;;9.22;57.19;99313.72;5016268;28;20057;-51
2022/03/30 02:27:42;;;;;;;28.92;17.38;;;;;;;9.16;57.17;99305.91;5015984;28;20061;-54
2022/03/30 02:30:10;;;;;;;25.77;17.03;;;;;;;9.07;57.17;99306.78;5014992;28;20414;-55
2022/03/30 02:32:37;;;;;;;27.48;17.02;;;;;;;9.01;57.56;99298.94;5015042;28;20054;-54
2022/03/30 02:35:06;;;;;;;29.25;18.00;;;;;;;8.93;57.59;99306.97;5015186;28;20053;-56
2022/03/30 02:37:34;;;;;;;26.90;16.17;;;;;;;8.89;57.75;99305.19;5008171;28;20066;-52
2022/03/30 02:40:01;;;;;;;32.22;18.40;;;;;;;8.83;57.82;99293.44;4996136;28;20425;-57
2022/03/30 02:42:28;;;;;;;24.58;16.65;;;;;;;8.78;58.18;99296.41;5005539;28;20050;-51
2022/03/30 02:44:57;;;;;;;25.67;16.73;;;;;;;8.71;58.61;99288.59;5016043;28;20054;-52
2022/03/30 02:50:07;;;;;;;27.02;17.05;;;;;;;8.57;59.54;99276.88;5015475;28;20514;-54
2022/03/30 02:52:34;;;;;;;27.08;16.67;;;;;;;8.53;59.18;99273.13;5014865;28;20429;-53
2022/03/30 02:55:01;;;;;;;27.60;17.95;;;;;;;8.48;59.01;99270.50;5015458;28;20065;-55
2022/03/30 02:57:29;;;;;;;30.02;17.25;;;;;;;8.43;59.15;99260.41;5008560;28;20050;-55
2022/03/30 02:59:57;;;;;;;34.60;18.60;;;;;;;8.40;59.93;99266.59;4997290;28;20058;-54
2022/03/30 03:02:25;;;;;;;30.17;17.58;;;;;;;8.34;60.06;99263.19;5014200;28;20084;-55
2022/03/30 03:04:52;;;;;;;30.58;17.92;;;;;;;8.32;60.13;99265.47;5015055;28;20410;-55
2022/03/30 03:07:19;;;;;;;27.90;16.02;;;;;;;8.27;60.44;99265.66;5015008;28;20065;-56
2022/03/30 03:09:47;;;;;;;25.25;16.30;;;;;;;8.24;60.21;99262.72;5015268;28;20061;-54
2022/03/30 03:12:14;;;;;;;27.58;16.92;;;;;;;8.19;60.33;99260.94;5015185;28;20478;-54
2022/03/30 03:14:41;;;;;;;26.38;17.48;;;;;;;8.12;60.83;99261.41;5015246;28;20069;-53
2022/03/30 03:17:10;;;;;;;33.05;18.80;;;;;;;8.05;61.01;99263.88;5014673;28;20053;-53
2022/03/30 03:19:38;;;;;;;30.05;19.13;;;;;;;8.01;60.88;99254.56;5005194;28;20066;-51
2022/03/30 03:22:06;;;;;;;29.48;18.02;;;;;;;7.98;61.06;99255.25;4999939;28;20053;-54
2022/03/30 03:24:33;;;;;;;30.02;18.10;;;;;;;7.95;61.21;99253.09;5014781;28;20050;-52
2022/03/30 03:27:01;;;;;;;29.73;18.02;;;;;;;7.92;60.78;99257.34;5015259;28;20054;-53
2022/03/30 03:29:29;;;;;;;27.35;17.67;;;;;;;7.89;61.72;99251.63;5004423;28;20058;-57
2022/03/30 03:31:56;;;;;;;29.20;18.73;;;;;;;7.86;61.48;99252.31;5009100;28;20479;-56
2022/03/30 03:34:25;;;;;;;28.58;18.30;;;;;;;7.81;61.53;99244.13;5001506;28;20426;-56
2022/03/30 03:36:53;;;;;;;25.23;17.00;;;;;;;7.75;61.01;99239.88;4994990;28;20398;-57
2022/03/30 03:39:20;;;;;;;31.60;17.85;;;;;;;7.73;61.13;99238.28;4995248;28;20058;-53
2022/03/30 03:41:48;;;;;;;30.98;17.88;;;;;;;7.67;61.33;99242.34;5014597;28;20053;-51
2022/03/30 03:44:15;;;;;;;29.40;20.38;;;;;;;7.63;61.70;99243.31;5014881;28;20050;-53
2022/03/30 03:46:44;;;;;;;29.73;18.63;;;;;;;7.60;61.42;99243.97;5013112;28;20057;-53
2022/03/30 03:49:12;;;;;;;31.60;19.20;;;;;;;7.56;61.52;99234.66;5010170;28;20407;-49
2022/03/30 03:51:40;;;;;;;29.23;17.58;;;;;;;7.50;62.05;99243.16;5014262;28;20050;-54
2022/03/30 03:54:10;;;;;;;29.50;18.23;;;;;;;7.48;61.81;99230.75;5014353;28;20058;-52
2022/03/30 03:56:38;;;;;;;27.92;16.90;;;;;;;7.46;62.56;99236.63;5014224;28;20402;-50
2022/03/30 03:59:05;;;;;;;29.42;18.98;;;;;;;7.41;62.60;99236.78;5013920;28;20061;-52
2022/03/30 04:01:33;;;;;;;25.80;16.30;;;;;;;7.39;62.46;99241.84;5013871;28;20050;-49
2022/03/30 04:04:00;;;;;;;30.27;18.40;;;;;;;7.35;62.60;99237.25;5013581;28;20495;-51
2022/03/30 04:06:30;;;;;;;30.63;18.35;;;;;;;7.34;62.11;99241.16;5001124;28;20088;-49
2022/03/30 04:08:59;;;;;;;32.70;20.50;;;;;;;7.32;62.09;99235.94;5012774;28;20049;-53
2022/03/30 04:11:26;;;;;;;31.67;19.50;;;;;;;7.31;62.82;99237.09;5006313;28;20054;-49
2022/03/30 04:13:53;;;;;;;31.90;19.17;;;;;;;7.30;62.48;99238.22;5014040;28;20056;-50
2022/03/30 04:16:23;;;;;;;30.95;18.95;;;;;;;7.29;62.17;99234.66;4996986;28;20059;-53
2022/03/30 04:18:51;;;;;;;31.27;17.92;;;;;;;7.29;62.42;99239.38;5009272;28;20057;-50
2022/03/30 04:21:18;;;;;;;30.67;20.00;;;;;;;7.25;63.01;99241.97;5003100;28;20057;-52
2022/03/30 04:23:46;;;;;;;34.15;19.05;;;;;;;7.24;63.19;99245.84;4994147;28;20054;-50
2022/03/30 04:26:14;;;;;;;34.65;19.80;;;;;;;7.21;63.26;99237.41;5006607;28;20057;-51
2022/03/30 04:28:43;;;;;;;31.13;18.73;;;;;;;7.18;63.28;99233.31;5011966;28;20069;-56
2022/03/30 04:31:11;;;;;;;28.45;18.50;;;;;;;7.16;63.04;99232.00;5013544;28;20054;-51
2022/03/30 04:33:40;;;;;;;31.95;19.27;;;;;;;7.15;62.70;99228.41;5012039;28;20062;-55
2022/03/30 04:36:07;;;;;;;30.85;19.30;;;;;;;7.16;62.89;99221.75;5011670;28;20407;-51
2022/03/30 04:38:35;;;;;;;30.90;18.63;;;;;;;7.14;63.06;99221.25;5010183;28;20057;-55
2022/03/30 04:41:02;;;;;;;30.00;17.58;;;;;;;7.15;62.77;99227.59;5013477;28;20064;-53
2022/03/30 04:43:31;;;;;;;27.77;18.45;;;;;;;7.16;62.54;99218.16;5013833;28;20061;-52
2022/03/30 04:45:59;;;;;;;25.33;17.02;;;;;;;7.13;62.66;99216.84;5013137;28;20107;-53
2022/03/30 04:48:26;;;;;;;32.20;18.40;;;;;;;7.14;63.21;99215.72;5008972;28;20058;-53
2022/03/30 04:50:54;;;;;;;25.90;17.90;;;;;;;7.14;62.77;99210.19;4993419;28;20073;-53
2022/03/30 04:53:21;;;;;;;30.63;18.40;;;;;;;7.12;62.59;99212.47;4994109;28;20065;-51
2022/03/30 04:55:48;;;;;;;29.77;18.92;;;;;;;7.13;62.30;99208.53;5006274;28;20053;-51
2022/03/30 04:58:16;;;;;;;34.42;20.23;;;;;;;7.09;63.24;99207.56;5000948;28;20057;-52
2022/03/30 05:00:44;;;;;;;28.85;18.60;;;;;;;7.07;62.74;99209.81;4999366;28;20053;-53
2022/03/30 05:03:12;;;;;;;31.05;19.25;;;;;;;7.03;62.52;99214.38;5003147;28;20077;-50
2022/03/30 05:05:39;;;;;;;33.28;20.23;;;;;;;6.97;62.89;99210.97;4995503;28;20058;-55
2022/03/30 05:08:07;;;;;;;30.15;17.48;;;;;;;6.95;62.60;99209.63;4993075;28;20057;-51
2022/03/30 05:10:35;;;;;;;30.48;18.75;;;;;;;6.93;62.53;99198.06;4999667;28;20065;-54
2022/03/30 05:13:04;;;;;;;29.10;19.10;;;;;;;6.85;62.58;99206.03;5003564;28;20152;-50
2022/03/30 05:15:33;;;;;;;30.00;19.13;;;;;;;6.81;62.11;99209.75;5013022;28;20410;-51
2022/03/30 05:18:02;;;;;;;32.38;18.70;;;;;;;6.78;62.27;99204.84;5007986;28;20046;-51
2022/03/30 05:20:29;;;;;;;31.95;18.42;;;;;;;6.70;62.42;99207.28;5011146;28;20479;-51
2022/03/30 05:22:57;;;;;;;31.17;19.02;;;;;;;6.65;62.72;99210.19;5002345;28;20583;-53
2022/03/30 05:25:24;;;;;;;30.42;18.77;;;;;;;6.61;63.41;99209.19;5000267;28;20050;-55
2022/03/30 05:27:52;;;;;;;29.20;18.38;;;;;;;6.55;63.45;99204.13;5011541;28;20086;-55
2022/03/30 05:30:19;;;;;;;29.77;17.67;;;;;;;6.55;62.61;99209.66;5011826;28;20419;-52
2022/03/30 05:32:48;;;;;;;28.45;18.60;;;;;;;6.55;62.53;99210.47;5011279;28;20053;-51
2022/03/30 05:35:17;;;;;;;28.13;18.65;;;;;;;6.48;62.64;99205.38;5007879;28;20060;-54
2022/03/30 05:37:47;;;;;;;30.53;18.10;;;;;;;6.46;62.41;99217.91;5009168;28;20053;-53
2022/03/30 05:40:15;;;;;;;30.52;18.55;;;;;;;6.43;62.99;99205.53;5011986;28;20482;-53
2022/03/30 05:42:43;;;;;;;31.25;19.38;;;;;;;6.44;63.39;99209.91;5010863;28;20057;-53
2022/03/30 05:45:10;;;;;;;35.67;18.88;;;;;;;6.45;63.91;99211.56;5010811;28;20064;-51
2022/03/30 05:47:38;;;;;;;35.30;21.13;;;;;;;6.46;63.67;99210.41;5011468;28;20045;-55
2022/03/30 05:50:08;;;;;;;32.38;20.83;;;;;;;6.48;63.60;99213.69;5011150;28;20069;-54
2022/03/30 05:52:37;;;;;;;35.35;21.17;;;;;;;6.51;63.86;99209.50;5012250;28;20053;-54
2022/03/30 05:55:05;;;;;;;33.88;20.27;;;;;;;6.56;63.69;99223.16;5011112;28;20414;-49
2022/03/30 05:57:33;;;;;;;35.00;21.38;;;;;;;6.61;63.84;99211.94;4999896;28;20062;-53
2022/03/30 06:00:00;;;;;;;33.47;20.25;;;;;;;6.68;63.93;99217.84;5010314;28;20050;-53
2022/03/30 06:02:28;;;;;;;34.88;20.63;;;;;;;6.77;63.49;99219.84;5007726;28;20050;-50
2022/03/30 06:04:56;;;;;;;29.65;18.08;;;;;;;6.86;62.90;99210.41;5009443;28;20056;-55
2022/03/30 06:07:23;;;;;;;32.97;19.75;;;;;;;6.94;62.65;99221.84;5011619;28;20072;-49
2022/03/30 06:09:52;;;;;;;32.08;18.27;;;;;;;7.07;62.48;99213.41;5011802;28;20077;-54
2022/03/30 06:12:19;;;;;;;32.22;19.90;;;;;;;7.23;62.33;99211.00;5009969;28;20042;-52
2022/03/30 06:14:47;;;;;;;31.92;19.60;;;;;;;7.43;61.53;99208.75;5011448;28;20049;-53
2022/03/30 06:17:17;;;;;;;32.92;19.33;;;;;;;7.58;61.33;99199.97;5012028;28;20050;-53
2022/03/30 06:19:47;;;;;;;31.83;20.00;;;;;;;7.73;61.48;99207.78;5004999;28;20060;-53
2022/03/30 06:22:15;;;;;;;30.05;18.90;;;;;;;7.87;60.41;99204.00;5011232;28;20041;-55
2022/03/30 06:24:43;;;;;;;33.03;19.90;;;;;;;8.04;59.75;99208.72;5011317;28;20057;-53
2022/03/30 06:27:12;;;;;;;30.17;17.77;;;;;;;8.17;60.17;99209.69;4992461;28;20058;-53
2022/03/30 06:29:41;;;;;;;29.57;18.60;;;;;;;8.25;59.73;99214.38;5003714;28;20061;-53
2022/03/30 06:32:09;;;;;;;34.45;21.40;;;;;;;8.31;59.11;99207.53;5011360;28;20371;-54
2022/03/30 06:34:38;;;;;;;32.72;19.85;;;;;;;8.38;58.66;99212.56;5010177;28;20054;-51
2022/03/30 06:37:06;;;;;;;26.20;18.10;;;;;;;8.28;59.53;99216.53;5010710;28;20065;-53
2022/03/30 06:39:33;;;;;;;32.85;19.33;;;;;;;8.39;58.71;99215.00;5009718;28;20065;-51
2022/03/30 06:42:01;;;;;;;28.60;18.55;;;;;;;8.43;58.87;99217.97;5011303;28;20057;-52
2022/03/30 06:44:31;;;;;;;35.97;19.35;;;;;;;8.40;58.98;99211.09;5009366;28;20065;-55
2022/03/30 06:46:59;;;;;;;27.20;18.20;;;;;;;8.63;58.25;99213.66;5008823;28;20104;-50
2022/03/30 06:49:26;;;;;;;30.20;19.25;;;;;;;8.88;57.32;99209.97;5005083;28;20049;-50
2022/03/30 06:51:53;;;;;;;29.75;20.17;;;;;;;9.13;56.53;99210.97;5008846;28;20053;-51
2022/03/30 06:54:21;;;;;;;31.67;19.33;;;;;;;9.31;55.69;99203.34;5008000;28;20053;-55
2022/03/30 06:56:48;;;;;;;31.05;19.95;;;;;;;9.56;55.67;99203.50;5010046;28;20059;-50
2022/03/30 06:59:18;;;;;;;27.25;19.05;;;;;;;9.81;54.62;99195.28;5008501;28;20376;-53
2022/03/30 07:01:50;;;;;;;29.08;19.50;;;;;;;10.02;53.77;99204.41;5007761;28;20061;-54
2022/03/30 07:04:18;;;;;;;30.02;19.80;;;;;;;10.22;52.72;99199.13;5005168;28;20046;-54
2022/03/30 07:12:12;;;;;;;28.08;18.58;;;;;;;10.71;51.86;99213.22;5011318;28;20068;-50
2022/03/30 07:14:39;;;;;;;29.33;18.65;;;;;;;10.80;51.08;99208.31;5011404;28;20050;-52
2022/03/30 07:17:08;;;;;;;30.08;18.75;;;;;;;10.85;50.87;99204.50;5010845;28;20501;-53
2022/03/30 07:19:37;;;;;;;27.02;18.05;;;;;;;11.16;50.02;99210.28;5008716;28;20053;-51
2022/03/30 07:22:05;;;;;;;25.48;17.88;;;;;;;11.42;49.72;99211.06;5009074;28;20053;-51
2022/03/30 07:24:33;;;;;;;28.95;17.85;;;;;;;11.92;48.88;99220.97;5009592;28;20061;-51
2022/03/30 07:27:00;;;;;;;29.42;18.95;;;;;;;12.62;47.34;99219.69;5009434;28;20061;-53
2022/03/30 07:29:28;;;;;;;27.33;18.23;;;;;;;13.52;45.10;99214.34;5010124;28;20600;-53
2022/03/30 07:31:56;;;;;;;25.08;16.85;;;;;;;13.83;43.63;99207.81;5006722;28;20363;-53
2022/03/30 07:34:25;;;;;;;27.55;18.80;;;;;;;13.79;43.72;99218.13;5009364;28;20053;-53
2022/03/30 07:36:52;;;;;;;24.37;18.50;;;;;;;14.20;42.74;99216.59;5009373;28;20054;-56
2022/03/30 07:39:20;;;;;;;29.65;19.02;;;;;;;14.45;42.01;99210.66;5004268;28;20490;-56
2022/03/30 07:41:47;;;;;;;24.92;18.20;;;;;;;14.57;41.84;99209.69;5011466;28;20506;-56
2022/03/30 07:44:14;;;;;;;31.25;19.75;;;;;;;14.44;41.36;99205.44;5006612;28;20387;-52
2022/03/30 07:46:43;;;;;;;27.65;20.23;;;;;;;14.79;40.89;99208.09;5001889;28;20058;-52
2022/03/30 07:49:10;;;;;;;26.37;17.90;;;;;;;15.73;39.52;99210.38;4995971;28;20060;-54
2022/03/30 07:51:39;;;;;;;22.48;17.52;;;;;;;16.66;38.17;99197.41;5010517;28;20481;-54
2022/03/30 07:54:07;;;;;;;22.20;17.80;;;;;;;17.78;36.13;99191.41;5009462;28;20050;-54
2022/03/30 07:56:35;;;;;;;24.98;17.65;;;;;;;18.81;34.34;99192.19;5011565;28;20069;-56
2022/03/30 07:59:03;;;;;;;24.10;17.38;;;;;;;19.73;32.26;99187.69;5010358;28;20521;-51
2022/03/30 08:01:30;;;;;;;22.17;17.05;;;;;;;20.48;31.24;99187.34;5009071;28;20057;-54
2022/03/30 08:03:57;;;;;;;22.45;17.48;;;;;;;21.28;29.95;99179.06;5008652;28;20414;-54
2022/03/30 08:06:26;;;;;;;23.45;17.52;;;;;;;21.91;28.56;99172.38;5009103;28;20058;-54
2022/03/30 08:08:55;;;;;;;22.13;18.80;;;;;;;22.66;27.35;99169.34;5007363;28;20422;-56
2022/03/30 08:11:22;;;;;;;20.50;17.30;;;;;;;23.20;27.15;99167.69;5010323;28;20058;-57
2022/03/30 08:13:50;;;;;;;20.67;17.15;;;;;;;23.58;25.60;99164.56;5010207;28;20050;-55
2022/03/30 08:16:17;;;;;;;20.92;16.40;;;;;;;24.10;25.14;99163.94;5010437;28;20057;-54
2022/03/30 08:18:45;;;;;;;21.73;17.67;;;;;;;25.01;24.46;99164.31;5008286;28;20056;-53
2022/03/30 08:23:58;;;;;;;20.98;17.48;;;;;;;25.36;23.26;99161.03;5014584;28;20069;-53
2022/03/30 08:26:27;;;;;;;21.33;16.10;;;;;;;25.42;23.29;99162.88;5011553;28;20065;-53
2022/03/30 08:28:54;;;;;;;20.42;17.10;;;;;;;25.60;23.27;99164.44;5011483;28;20058;-55
2022/03/30 08:31:22;;;;;;;20.30;17.25;;;;;;;25.86;22.47;99154.72;5011636;28;20080;-54
2022/03/30 08:33:49;;;;;;;20.20;17.13;;;;;;;26.22;22.01;99158.63;5010108;28;20050;-53
2022/03/30 08:36:16;;;;;;;19.38;17.30;;;;;;;26.57;22.04;99151.03;5011695;28;20051;-55
2022/03/30 08:38:45;;;;;;;19.58;16.48;;;;;;;27.37;20.80;99158.63;5002597;28;20053;-55
2022/03/30 08:41:13;;;;;;;19.20;16.30;;;;;;;28.19;20.63;99156.91;5009363;28;20053;-56
2022/03/30 08:43:41;;;;;;;20.13;16.17;;;;;;;28.76;19.69;99153.88;5011592;28;20057;-55
2022/03/30 08:46:09;;;;;;;19.63;16.42;;;;;;;29.42;18.61;99154.38;5010290;28;20484;-52
2022/03/30 08:48:36;;;;;;;18.63;15.73;;;;;;;29.27;18.75;99153.38;5010613;28;20077;-55
2022/03/30 08:51:04;;;;;;;19.42;15.55;;;;;;;29.29;18.23;99156.59;5009275;28;20372;-55
2022/03/30 08:53:31;;;;;;;17.08;15.38;;;;;;;29.97;18.03;99158.56;5007036;28;20054;-56
2022/03/30 08:55:59;;;;;;;20.23;15.65;;;;;;;30.54;17.37;99153.81;5012453;28;20387;-56
2022/03/30 08:58:28;;;;;;;20.08;15.15;;;;;;;31.02;17.72;99152.38;5010779;28;20049;-56
2022/03/30 09:01:07;;;;;;;17.50;15.23;;;;;;;31.11;16.98;99155.16;5010756;28;20042;-55
2022/03/30 09:03:36;;;;;;;;;;;;;;;31.04;17.21;99156.34;5011266;28;20050;-56
2022/03/30 09:06:04;;;;;;;18.45;15.73;;;;;;;31.14;17.16;99154.19;5010056;28;19921;-55
2022/03/30 09:08:31;;;;;;;18.92;15.25;;;;;;;31.79;16.49;99145.09;5011457;28;20068;-56
2022/03/30 09:10:59;;;;;;;18.42;14.80;;;;;;;32.12;16.06;99151.53;5011206;28;20463;-56
2022/03/30 09:13:28;;;;;;;18.08;14.95;;;;;;;32.27;15.83;99157.28;5009853;28;20395;-56
2022/03/30 09:15:55;;;;;;;15.50;13.30;;;;;;;32.12;16.00;99147.84;5011572;28;20537;-53
2022/03/30 09:18:22;;;;;;;18.73;14.55;;;;;;;32.01;15.98;99142.69;5013131;28;20057;-56
2022/03/30 09:20:54;;;;;;;15.82;13.25;;;;;;;32.55;15.20;99148.38;5009935;28;20069;-56
2022/03/30 09:23:21;;;;;;;17.42;13.18;;;;;;;32.71;15.44;99139.19;5012518;28;20050;-56
2022/03/30 09:25:51;;;;;;;16.30;13.50;;;;;;;33.21;14.79;99144.16;5008815;28;20060;-56
2022/03/30 09:28:20;;;;;;;15.15;12.52;;;;;;;33.88;14.54;99143.44;5009021;28;20046;-56
2022/03/30 09:30:51;;;;;;;14.65;12.07;;;;;;;33.64;14.07;99140.78;5009316;28;20068;-56
2022/03/30 09:33:20;;;;;;;15.02;12.63;;;;;;;33.72;14.01;99136.94;5011354;28;20060;-56
2022/03/30 09:35:48;;;;;;;15.93;12.57;;;;;;;34.51;13.45;99137.75;5010158;28;20056;-55
2022/03/30 09:38:18;;;;;;;14.48;12.65;;;;;;;34.39;13.51;99135.28;5011299;28;20494;-56
2022/03/30 09:40:47;;;;;;;13.30;11.85;;;;;;;34.81;13.70;99125.91;5009634;28;20052;-56
2022/03/30 09:43:18;;;;;;;16.00;12.32;;;;;;;35.14;13.08;99124.56;5008996;28;20057;-56
2022/03/30 09:45:47;;;;;;;14.85;11.93;;;;;;;35.34;12.50;99126.47;5008456;28;20053;-56
2022/03/30 09:48:21;;;;;;;13.38;11.82;;;;;;;35.68;12.14;99126.63;5006878;28;20124;-56
2022/03/30 09:50:51;;;;;;;15.60;12.15;;;;;;;34.99;13.18;99121.03;5008575;28;20054;-56
2022/03/30 09:53:20;;;;;;;13.15;11.48;;;;;;;35.39;13.24;99122.84;5012062;28;20065;-56
2022/03/30 09:55:55;;;;;;;14.52;11.32;;;;;;;35.92;12.40;99124.06;5010627;28;20083;-56
2022/03/30 09:58:23;;;;;;;12.95;11.50;;;;;;;36.11;12.21;99120.69;5011505;28;20483;-57
2022/03/30 10:01:19;;;;;;;12.15;10.45;;;;;;;35.97;11.94;99114.63;5008696;28;20049;-57
2022/03/30 10:03:51;;;;;;;15.80;11.40;;;;;;;36.26;12.30;99103.84;4975538;28;20054;-56
2022/03/30 10:06:20;;;;;;;13.88;11.18;;;;;;;36.33;12.23;99103.34;5011065;28;20049;-56
2022/03/30 10:08:50;;;;;;;12.95;10.90;;;;;;;36.09;12.13;99097.22;5011206;28;20054;-56
2022/03/30 10:11:18;;;;;;;12.57;11.27;;;;;;;35.92;12.63;99103.00;5009796;28;20108;-56
2022/03/30 10:13:47;;;;;;;13.05;10.63;;;;;;;35.66;11.93;99097.41;5010520;28;20041;-56
2022/03/30 10:16:17;;;;;;;12.07;10.77;;;;;;;35.93;12.30;99098.78;5009797;28;20053;-56
2022/03/30 10:18:45;;;;;;;15.43;12.07;;;;;;;35.37;12.72;99090.72;5010967;28;20053;-56
2022/03/30 10:21:20;;;;;;;;;;;;;;;34.53;13.17;99097.53;5011707;28;20050;-56
2022/03/30 10:24:17;;;;;;;12.88;11.07;;;;;;;35.92;11.93;99094.31;5010946;28;19932;-56
2022/03/30 10:26:53;;;;;;;14.20;11.40;;;;;;;35.37;12.30;99088.59;5000354;28;20050;-56
2022/03/30 10:29:25;;;;;;;13.02;11.32;;;;;;;35.71;12.64;99085.84;5014082;28;20049;-57
2022/03/30 10:32:17;;;;;;;12.45;10.95;;;;;;;36.15;12.26;99081.44;5015018;28;20517;-57
2022/03/30 10:35:01;;;;;;;14.55;12.05;;;;;;;36.23;11.45;99080.94;5008615;28;20049;-56
2022/03/30 10:37:33;;;;;;;14.68;11.05;;;;;;;36.11;11.87;99075.09;5014674;28;20053;-56
2022/03/30 10:40:15;;;;;;;12.15;10.85;;;;;;;35.70;12.14;99068.97;5011460;28;20050;-56
2022/03/30 10:43:01;;;;;;;12.23;10.90;;;;;;;36.13;12.15;99071.66;5010111;28;20054;-55
2022/03/30 10:45:33;;;;;;;11.18;9.65;;;;;;;36.86;11.47;99062.16;5014507;28;20053;-59
2022/03/30 10:48:09;;;;;;;11.23;9.95;;;;;;;37.11;11.23;99063.94;5015030;28;20052;-57
2022/03/30 10:50:39;;;;;;;12.82;10.55;;;;;;;37.37;11.24;99063.56;5009461;28;20046;-55
2022/03/30 10:53:42;;;;;;;13.20;10.77;;;;;;;37.64;10.58;99060.28;5016481;28;20061;-57
2022/03/30 10:56:32;;;;;;;12.50;10.85;;;;;;;37.23;10.78;99064.69;5020918;28;20049;-57
2022/03/30 10:59:23;;;;;;;11.82;10.27;;;;;;;37.55;10.94;99061.38;5003319;28;20065;-56
2022/03/30 11:01:50;;;;;;;11.48;10.02;;;;;;;37.73;10.69;99059.97;5006526;28;20065;-57
2022/03/30 11:04:25;;;;;;;12.37;10.43;;;;;;;37.41;10.74;99045.84;4999992;28;20050;-57
2022/03/30 11:07:41;;;;;;;10.45;9.20;;;;;;;37.57;10.65;99042.09;4997605;28;20487;-55
2022/03/30 11:10:30;;;;;;;11.55;10.35;;;;;;;37.53;10.26;99038.66;5001121;28;20054;-58
2022/03/30 11:13:00;;;;;;;13.13;11.02;;;;;;;37.27;10.91;99039.06;5001410;28;20057;-57
2022/03/30 11:15:27;;;;;;;13.77;11.25;;;;;;;37.10;10.68;99033.31;4998333;28;20053;-57
2022/03/30 11:17:56;;;;;;;11.40;10.00;;;;;;;36.53;11.70;99028.97;5008443;28;20050;-55
2022/03/30 11:20:24;;;;;;;;;;;;;;;36.29;11.21;99029.53;4998288;28;20054;-57
2022/03/30 11:22:51;;;;;;;12.27;9.98;;;;;;;36.68;11.43;99026.56;5001605;28;19932;-55
2022/03/30 11:25:20;;;;;;;11.90;10.07;;;;;;;36.77;11.56;99023.41;5008477;28;20057;-57
2022/03/30 11:28:13;;;;;;;10.65;9.40;;;;;;;36.81;11.23;99017.31;5009468;28;20046;-57
2022/03/30 11:30:45;;;;;;;12.20;10.07;;;;;;;36.73;11.13;99019.19;5013515;28;20054;-56
2022/03/30 11:33:21;;;;;;;17.35;10.75;;;;;;;36.81;10.71;99016.53;5005584;28;20057;-57
2022/03/30 11:35:49;;;;;;;10.80;9.68;;;;;;;36.79;10.90;99011.25;5011471;28;20514;-56
2022/03/30 11:38:23;;;;;;;10.88;9.77;;;;;;;36.21;11.48;99016.91;5010193;28;20046;-56
2022/03/30 11:40:58;;;;;;;13.32;9.80;;;;;;;35.97;11.70;99007.38;5005589;28;20050;-56
2022/03/30 11:43:28;;;;;;;13.40;10.82;;;;;;;36.36;11.96;99008.69;5012471;28;20060;-57
2022/03/30 11:45:57;;;;;;;11.93;9.77;;;;;;;35.92;12.42;98995.78;5011918;28;20402;-56